Time;durP1;ratioP1;P1;durP2;ratioP2;P2;SDS_P1;SDS_P2;PMS_P1;PMS_P2;Temp;Humidity;BMP_temperature;BMP_pressure;BME280_temperature;BME280_humidity;BME280_pressure;Samples;Min_cycle;Max_cycle;Signal;HPM_P1;HPM_P2
2021/12/28 00:00:09;;;;;;;254.63;109.67;;;;;;;3.22;100.00;98420.44;4943475;29;20437;-87
2021/12/28 00:02:34;;;;;;;223.70;96.37;;;;;;;0.49;100.00;98002.00;4956822;29;20409;-85
2021/12/28 00:05:00;;;;;;;233.27;99.47;;;;;;;2.34;100.00;98307.09;4942071;29;20432;-86
2021/12/28 00:07:26;;;;;;;226.40;95.10;;;;;;;2.44;100.00;98291.88;4955297;29;20190;-85
2021/12/28 00:09:51;;;;;;;217.07;88.40;;;;;;;2.58;100.00;98373.44;4955743;29;20185;-86
2021/12/28 00:12:17;;;;;;;199.60;85.30;;;;;;;3.14;100.00;98469.16;4973991;28;20218;-87
2021/12/28 00:14:50;;;;;;;196.53;84.47;;;;;;;0.12;100.00;97972.31;4939981;29;20242;-86
2021/12/28 00:20:00;;;;;;;210.00;88.00;;;;;;;4.62;100.00;98742.09;4948607;29;20502;-87
2021/12/28 00:22:26;;;;;;;204.97;85.43;;;;;;;4.26;100.00;98689.94;4926287;29;20430;-86
2021/12/28 00:24:52;;;;;;;220.13;95.90;;;;;;;4.73;100.00;98749.44;4958890;29;20170;-87
2021/12/28 00:27:18;;;;;;;219.60;92.80;;;;;;;4.60;100.00;98758.69;4922444;29;20289;-88
2021/12/28 00:29:43;;;;;;;189.97;81.17;;;;;;;2.47;100.00;98423.53;4921797;29;20658;-87
2021/12/28 00:32:09;;;;;;;195.23;84.63;;;;;;;-0.13;100.00;97973.31;4956192;29;20523;-88
2021/12/28 00:34:35;;;;;;;200.93;85.43;;;;;;;0.81;100.00;98125.03;4939485;29;20501;-88
2021/12/28 00:37:02;;;;;;;197.47;86.17;;;;;;;2.41;100.00;98424.03;4959164;29;20688;-87
2021/12/28 00:39:27;;;;;;;207.20;87.17;;;;;;;3.40;100.00;98581.56;4938164;29;21133;-86
2021/12/28 00:41:53;;;;;;;243.07;107.37;;;;;;;1.93;100.00;98339.59;4937808;29;20420;-85
2021/12/28 00:44:19;;;;;;;252.77;112.57;;;;;;;1.32;100.00;98236.97;4953465;29;20217;-87
2021/12/28 00:46:45;;;;;;;203.53;82.43;;;;;;;1.90;100.00;98371.00;4956004;29;20197;-87
2021/12/28 00:49:10;;;;;;;206.77;87.00;;;;;;;4.30;100.00;98751.94;4953562;29;20432;-86
2021/12/28 00:51:37;;;;;;;203.77;90.50;;;;;;;0.10;100.00;98043.50;4955221;29;20212;-85
2021/12/28 00:54:08;;;;;;;199.37;85.13;;;;;;;0.29;100.00;98052.19;4915447;29;20199;-88
2021/12/28 00:56:34;;;;;;;197.60;83.00;;;;;;;-0.29;100.00;97950.75;4952269;29;20413;-86
2021/12/28 00:59:01;;;;;;;186.43;80.53;;;;;;;3.43;100.00;98595.88;4953813;29;20439;-86
2021/12/28 01:01:27;;;;;;;204.13;82.83;;;;;;;2.35;100.00;98408.69;4955826;29;20185;-88
2021/12/28 01:03:52;;;;;;;202.93;85.03;;;;;;;1.70;100.00;98314.94;4953581;29;20416;-87
2021/12/28 01:06:18;;;;;;;197.07;82.43;;;;;;;3.02;100.00;98510.09;4954127;29;20189;-86
2021/12/28 01:08:44;;;;;;;198.97;86.90;;;;;;;2.20;100.00;98371.19;4935113;29;20649;-87
2021/12/28 01:11:11;;;;;;;267.37;115.37;;;;;;;0.63;100.00;98101.53;4955851;28;20232;-86
2021/12/28 01:13:36;;;;;;;258.57;111.53;;;;;;;0.50;100.00;98083.34;4960253;29;20437;-87
2021/12/28 01:16:02;;;;;;;232.27;103.30;;;;;;;4.30;100.00;98734.41;4956651;29;20439;-86
2021/12/28 01:18:28;;;;;;;203.50;86.73;;;;;;;1.09;100.00;98195.69;4919772;29;20205;-86
2021/12/28 01:20:53;;;;;;;203.70;84.97;;;;;;;2.85;100.00;98514.09;4955067;29;20225;-86
2021/12/28 01:23:19;;;;;;;252.43;112.70;;;;;;;0.74;100.00;98155.34;4935447;29;20191;-87
2021/12/28 01:25:45;;;;;;;197.33;91.10;;;;;;;0.55;100.00;98138.38;4920570;29;20187;-87
2021/12/28 01:28:11;;;;;;;227.97;97.67;;;;;;;-0.02;100.00;98048.56;4952038;29;20445;-86
2021/12/28 01:30:40;;;;;;;203.30;87.73;;;;;;;0.07;100.00;98049.16;4951165;29;20200;-86
2021/12/28 01:33:06;;;;;;;193.60;84.43;;;;;;;0.93;100.00;98200.53;4935705;29;20909;-86
2021/12/28 01:35:33;;;;;;;190.20;78.03;;;;;;;0.71;100.00;98193.38;4952168;29;20432;-86
2021/12/28 01:38:00;;;;;;;185.30;78.27;;;;;;;-0.33;100.00;98020.09;4941422;29;20906;-86
2021/12/28 01:40:31;;;;;;;180.00;77.47;;;;;;;3.64;100.00;98676.31;4959813;29;20462;-86
2021/12/28 01:42:58;;;;;;;182.30;78.53;;;;;;;2.78;100.00;98505.38;4968584;28;20417;-85
2021/12/28 01:45:54;;;;;;;179.57;73.33;;;;;;;2.91;100.00;98499.47;4965517;28;20418;-86
2021/12/28 01:48:28;;;;;;;185.03;76.77;;;;;;;3.63;100.00;98644.53;4936483;29;20457;-88
2021/12/28 01:50:58;;;;;;;176.33;75.33;;;;;;;4.32;100.00;98725.34;4954571;29;20478;-87
2021/12/28 01:53:25;;;;;;;185.83;75.83;;;;;;;3.93;100.00;98616.25;4935334;29;20442;-88
2021/12/28 01:55:54;;;;;;;176.03;77.30;;;;;;;4.42;100.00;98678.34;4952430;29;20424;-86
2021/12/28 01:58:19;;;;;;;177.70;77.83;;;;;;;4.78;100.00;98738.81;4953231;29;20428;-86
2021/12/28 02:00:47;;;;;;;176.60;76.10;;;;;;;3.82;100.00;98560.59;4950639;29;20396;-86
2021/12/28 02:03:16;;;;;;;173.73;76.13;;;;;;;3.79;100.00;98537.06;4952229;29;20181;-87
2021/12/28 02:05:42;;;;;;;161.10;74.03;;;;;;;4.71;100.00;98712.53;4951259;29;20473;-87
2021/12/28 02:08:09;;;;;;;203.50;93.43;;;;;;;4.30;100.00;98621.69;4952523;29;20954;-86
2021/12/28 02:10:36;;;;;;;178.03;80.87;;;;;;;1.69;100.00;98191.84;4941781;29;20479;-87
2021/12/28 02:13:04;;;;;;;169.70;76.47;;;;;;;1.74;100.00;98210.44;4958485;29;20414;-86
2021/12/28 02:15:31;;;;;;;168.57;70.60;;;;;;;3.26;100.00;98433.97;4959410;29;20436;-87
2021/12/28 02:17:56;;;;;;;159.27;72.13;;;;;;;4.03;100.00;98554.28;4967188;28;20412;-87
2021/12/28 02:20:23;;;;;;;163.40;72.77;;;;;;;5.11;100.00;98730.63;4956475;29;20480;-86
2021/12/28 02:22:49;;;;;;;159.77;70.07;;;;;;;4.44;100.00;98639.22;4952488;28;20233;-87
2021/12/28 02:25:16;;;;;;;167.37;73.93;;;;;;;1.52;100.00;98136.78;4936382;29;20936;-85
2021/12/28 02:27:42;;;;;;;165.47;74.90;;;;;;;1.51;100.00;98106.00;4935264;29;20233;-86
2021/12/28 02:30:14;;;;;;;186.77;83.17;;;;;;;1.77;100.00;98149.88;4935305;29;20567;-86
2021/12/28 02:32:41;;;;;;;182.93;83.07;;;;;;;1.49;100.00;98129.97;4939226;29;20173;-87
2021/12/28 02:35:10;;;;;;;177.10;80.93;;;;;;;5.31;100.00;98767.66;4952215;29;20452;-86
2021/12/28 02:37:35;;;;;;;192.70;84.27;;;;;;;3.54;100.00;98442.25;4952484;29;20429;-86
2021/12/28 02:40:02;;;;;;;194.77;86.77;;;;;;;1.35;100.00;98138.28;4953101;29;20515;-88
2021/12/28 02:42:27;;;;;;;187.67;84.87;;;;;;;2.87;100.00;98377.59;4955204;29;20174;-86
2021/12/28 02:45:09;;;;;;;180.23;83.10;;;;;;;1.54;100.00;98096.19;4935851;29;20452;-86
2021/12/28 02:47:36;;;;;;;181.37;84.03;;;;;;;3.78;100.00;98512.78;4956945;29;20161;-86
2021/12/28 02:50:05;;;;;;;191.80;85.43;;;;;;;2.71;100.00;98358.38;4936247;29;20477;-87
2021/12/28 02:52:34;;;;;;;197.67;87.30;;;;;;;3.09;100.00;98387.16;4951974;29;20413;-86
2021/12/28 02:55:00;;;;;;;181.30;85.17;;;;;;;1.95;100.00;98209.97;4952627;29;20405;-87
2021/12/28 02:57:25;;;;;;;203.20;92.43;;;;;;;5.00;100.00;98737.56;4936381;29;20918;-87
2021/12/28 02:59:52;;;;;;;193.27;88.40;;;;;;;3.28;100.00;98462.41;4954405;29;20469;-85
2021/12/28 03:02:18;;;;;;;311.87;135.87;;;;;;;2.65;100.00;98367.16;4951490;29;20249;-86
2021/12/28 03:04:45;;;;;;;238.73;108.13;;;;;;;2.25;100.00;98292.44;4952688;29;20778;-87
2021/12/28 03:07:10;;;;;;;190.73;88.63;;;;;;;3.09;100.00;98449.66;4935094;29;20444;-88
2021/12/28 03:09:37;;;;;;;189.40;84.87;;;;;;;0.80;100.00;98068.53;4952185;29;20181;-87
2021/12/28 03:12:03;;;;;;;189.07;84.43;;;;;;;2.19;100.00;98309.56;4943657;29;20197;-86
2021/12/28 03:14:29;;;;;;;189.03;84.37;;;;;;;0.87;100.00;98071.50;4945036;29;20427;-85
2021/12/28 03:16:54;;;;;;;176.80;79.70;;;;;;;1.67;100.00;98228.31;4970376;28;20421;-87
2021/12/28 03:19:20;;;;;;;304.63;148.63;;;;;;;1.89;100.00;98255.38;4935527;29;20170;-87
2021/12/28 03:21:46;;;;;;;180.30;79.03;;;;;;;1.85;100.00;98262.56;4936865;29;20248;-86
2021/12/28 03:24:13;;;;;;;172.93;77.50;;;;;;;2.27;100.00;98349.97;4953642;29;20533;-86
2021/12/28 03:26:39;;;;;;;173.37;76.87;;;;;;;0.72;100.00;98075.53;4954382;29;20400;-87
2021/12/28 03:29:05;;;;;;;182.93;82.97;;;;;;;2.14;100.00;98305.91;4953632;29;20801;-87
2021/12/28 03:31:32;;;;;;;175.97;79.47;;;;;;;2.42;100.00;98352.50;4935424;29;20195;-87
2021/12/28 03:33:58;;;;;;;174.90;78.37;;;;;;;1.01;100.00;98099.72;4938392;29;20905;-86
2021/12/28 03:36:30;;;;;;;177.80;84.33;;;;;;;2.23;100.00;98305.59;4939781;29;20421;-85
2021/12/28 03:38:57;;;;;;;187.40;82.13;;;;;;;4.69;100.00;98714.09;4961835;29;20717;-86
2021/12/28 03:41:25;;;;;;;194.23;91.50;;;;;;;2.67;100.00;98373.09;4943595;29;20429;-88
2021/12/28 03:43:54;;;;;;;200.97;89.70;;;;;;;0.76;100.00;98076.59;4938894;29;20515;-87
2021/12/28 03:46:21;;;;;;;229.27;104.27;;;;;;;0.40;100.00;98043.75;4939292;29;20511;-86
2021/12/28 03:48:47;;;;;;;264.80;117.93;;;;;;;2.97;100.00;98445.69;4956974;29;20417;-85
2021/12/28 03:51:15;;;;;;;259.10;119.87;;;;;;;0.93;100.00;98125.78;4953567;29;20929;-86
2021/12/28 03:53:41;;;;;;;245.20;107.63;;;;;;;1.09;100.00;98155.84;4955885;29;20201;-88
2021/12/28 03:56:09;;;;;;;235.43;104.90;;;;;;;0.84;100.00;98127.72;4954588;29;20961;-85
2021/12/28 03:58:37;;;;;;;223.67;97.10;;;;;;;1.60;100.00;98330.97;4937558;29;20440;-87
2021/12/28 04:01:05;;;;;;;289.93;122.30;;;;;;;0.31;100.00;98075.53;4939715;29;20459;-88
2021/12/28 04:03:31;;;;;;;269.63;113.87;;;;;;;0.23;100.00;98071.72;4955090;29;20421;-86
2021/12/28 04:05:56;;;;;;;242.90;104.63;;;;;;;2.44;100.00;98456.69;4941481;29;20533;-87
2021/12/28 04:08:24;;;;;;;237.10;102.27;;;;;;;0.13;100.00;98059.47;4960338;29;20173;-87
2021/12/28 04:11:01;;;;;;;253.67;104.83;;;;;;;1.91;100.00;98410.16;4957741;29;20209;-86
2021/12/28 04:13:28;;;;;;;239.93;103.23;;;;;;;-0.20;100.00;98044.94;4958391;29;20443;-86
2021/12/28 04:15:57;;;;;;;220.47;97.20;;;;;;;0.31;100.00;98112.00;4960836;29;20435;-87
2021/12/28 04:18:23;;;;;;;157.43;70.70;;;;;;;2.08;100.00;98437.00;4931698;29;20464;-88
2021/12/28 04:20:49;;;;;;;160.30;69.07;;;;;;;1.74;100.00;98447.41;4948558;29;20487;-86
2021/12/28 04:23:16;;;;;;;269.03;116.83;;;;;;;3.70;100.00;98760.13;4948622;29;20180;-86
2021/12/28 04:25:41;;;;;;;120.43;46.87;;;;;;;2.14;100.00;98517.25;4948645;29;20556;-86
2021/12/28 04:28:08;;;;;;;177.60;74.33;;;;;;;0.84;100.00;98317.00;4966073;29;20428;-86
2021/12/28 04:30:33;;;;;;;196.77;85.63;;;;;;;-0.81;100.00;98053.44;4964963;29;20240;-87
2021/12/28 04:32:59;;;;;;;171.13;69.87;;;;;;;-0.66;100.00;98074.28;4947946;29;20443;-87
2021/12/28 04:35:24;;;;;;;161.30;66.33;;;;;;;1.11;100.00;98406.81;4948975;29;20188;-87
2021/12/28 04:37:50;;;;;;;157.27;63.47;;;;;;;2.82;100.00;98659.72;4972469;28;20180;-87
2021/12/28 04:40:16;;;;;;;154.13;62.97;;;;;;;1.86;100.00;98479.75;4974268;28;20229;-88
2021/12/28 04:42:44;;;;;;;157.87;65.70;;;;;;;-0.32;100.00;98088.91;4969027;29;20180;-86
2021/12/28 04:45:11;;;;;;;147.27;59.67;;;;;;;2.00;100.00;98478.09;4964769;28;20544;-86
2021/12/28 04:47:38;;;;;;;159.87;65.93;;;;;;;0.38;100.00;98207.06;4964098;29;20427;-88
2021/12/28 04:50:06;;;;;;;153.30;65.77;;;;;;;0.80;100.00;98280.22;4963167;29;20440;-88
2021/12/28 04:52:37;;;;;;;150.17;63.07;;;;;;;0.19;100.00;98200.81;4946688;29;20510;-86
2021/12/28 04:55:07;;;;;;;150.03;62.47;;;;;;;2.11;100.00;98487.09;4946733;29;20795;-87
2021/12/28 04:57:35;;;;;;;161.67;70.50;;;;;;;3.29;100.00;98691.75;4930331;29;20448;-87
2021/12/28 05:00:00;;;;;;;213.10;91.23;;;;;;;2.11;100.00;98507.94;4964274;29;20969;-87
2021/12/28 05:02:28;;;;;;;252.07;106.97;;;;;;;1.22;100.00;98361.78;4963561;29;20413;-86
2021/12/28 05:04:54;;;;;;;218.20;91.03;;;;;;;3.58;100.00;98771.91;4963930;29;20416;-86
2021/12/28 05:07:22;;;;;;;244.83;99.87;;;;;;;2.69;100.00;98621.41;4947501;29;20451;-86
2021/12/28 05:09:47;;;;;;;232.00;97.10;;;;;;;0.57;100.00;98274.66;4972792;29;20412;-87
2021/12/28 05:12:14;;;;;;;460.93;237.73;;;;;;;3.38;100.00;98764.81;4964735;29;20487;-87
2021/12/28 05:14:42;;;;;;;405.37;193.97;;;;;;;3.32;100.00;98769.47;4947447;29;20713;-87
2021/12/28 05:17:08;;;;;;;241.33;106.03;;;;;;;1.62;100.00;98474.06;4947966;29;20405;-87
2021/12/28 05:19:34;;;;;;;229.13;100.27;;;;;;;2.56;100.00;98646.38;4948831;29;20433;-88
2021/12/28 05:22:04;;;;;;;219.87;90.57;;;;;;;0.52;100.00;98325.75;4949476;29;20496;-87
2021/12/28 05:24:30;;;;;;;202.07;84.30;;;;;;;-0.94;100.00;98055.91;4949302;29;20807;-87
2021/12/28 05:26:55;;;;;;;196.90;82.70;;;;;;;-0.65;100.00;98140.63;4968315;29;20496;-89
2021/12/28 05:29:21;;;;;;;190.43;84.07;;;;;;;-1.21;100.00;98056.56;4969733;29;20188;-86
2021/12/28 05:31:46;;;;;;;207.70;86.93;;;;;;;0.14;100.00;98265.19;4951879;29;20196;-88
2021/12/28 05:34:12;;;;;;;207.17;82.90;;;;;;;0.15;100.00;98271.03;4954501;29;20199;-85
2021/12/28 05:36:37;;;;;;;200.37;83.97;;;;;;;0.88;100.00;98387.03;4955942;29;20240;-87
2021/12/28 05:39:04;;;;;;;196.30;81.93;;;;;;;2.22;100.00;98629.31;4955115;29;20232;-86
2021/12/28 05:41:29;;;;;;;189.63;79.47;;;;;;;-0.61;100.00;98141.69;4965541;29;20180;-88
2021/12/28 05:43:55;;;;;;;185.97;79.33;;;;;;;-0.32;100.00;98205.75;4963769;29;20560;-87
2021/12/28 05:46:20;;;;;;;190.70;81.53;;;;;;;1.67;100.00;98540.09;4947446;29;20229;-87
2021/12/28 05:48:47;;;;;;;184.40;79.50;;;;;;;3.34;100.00;98801.28;4968577;29;20168;-86
2021/12/28 05:51:13;;;;;;;298.40;122.80;;;;;;;1.01;100.00;98378.75;4959347;29;20235;-86
2021/12/28 05:53:40;;;;;;;208.80;90.17;;;;;;;1.09;100.00;98347.69;4966348;29;20443;-89
2021/12/28 05:56:06;;;;;;;179.97;78.60;;;;;;;-0.36;100.00;98106.88;4946892;29;20500;-86
2021/12/28 05:58:32;;;;;;;204.97;84.57;;;;;;;-0.18;100.00;98145.34;4947289;29;20452;-87
2021/12/28 06:00:58;;;;;;;202.93;81.67;;;;;;;-0.23;100.00;98116.84;4963520;29;20188;-87
2021/12/28 06:03:24;;;;;;;313.47;134.57;;;;;;;-0.49;100.00;98097.75;4966716;29;20417;-89
2021/12/28 06:05:51;;;;;;;309.57;125.10;;;;;;;0.92;100.00;98304.28;4952444;29;20448;-87
2021/12/28 06:08:16;;;;;;;249.13;105.60;;;;;;;1.03;100.00;98313.28;4952419;29;20173;-89
2021/12/28 06:10:42;;;;;;;441.33;209.77;;;;;;;2.54;100.00;98622.94;4949357;29;20460;-87
2021/12/28 06:13:07;;;;;;;492.03;240.53;;;;;;;0.96;100.00;98316.16;4945573;29;20176;-87
2021/12/28 06:15:33;;;;;;;480.30;222.97;;;;;;;-0.23;100.00;98091.97;4963739;29;20184;-86
2021/12/28 06:17:58;;;;;;;395.27;156.10;;;;;;;-0.17;100.00;98122.22;4916722;29;20192;-88
2021/12/28 06:20:24;;;;;;;417.93;161.50;;;;;;;0.31;100.00;98214.88;4948435;29;20177;-89
2021/12/28 06:22:50;;;;;;;304.47;120.57;;;;;;;0.05;100.00;98152.66;4948528;29;20200;-88
2021/12/28 06:25:15;;;;;;;247.33;96.90;;;;;;;1.64;100.00;98445.13;4964306;29;20241;-87
2021/12/28 06:27:42;;;;;;;274.43;115.13;;;;;;;0.65;100.00;98276.78;4964247;29;20195;-88
2021/12/28 06:30:09;;;;;;;422.83;209.73;;;;;;;2.84;100.00;98610.69;4948162;29;20279;-87
2021/12/28 06:32:35;;;;;;;335.13;148.63;;;;;;;0.73;100.00;98241.63;4963265;29;20468;-87
2021/12/28 06:35:00;;;;;;;305.03;142.43;;;;;;;1.35;100.00;98330.22;4950111;29;20503;-88
2021/12/28 06:37:26;;;;;;;254.63;117.07;;;;;;;0.40;100.00;98173.16;4946409;29;20634;-86
2021/12/28 06:39:52;;;;;;;238.57;105.57;;;;;;;2.48;100.00;98512.66;4947117;29;20220;-87
2021/12/28 06:42:19;;;;;;;213.27;95.40;;;;;;;1.40;100.00;98362.94;4965675;29;20184;-87
2021/12/28 06:44:46;;;;;;;181.63;88.33;;;;;;;2.36;100.00;98511.16;4966900;29;20164;-87
2021/12/28 06:47:12;;;;;;;165.03;76.10;;;;;;;0.74;100.00;98202.66;4954598;29;20434;-86
2021/12/28 06:49:38;;;;;;;130.23;56.97;;;;;;;1.68;100.00;98357.22;4968231;29;20511;-88
2021/12/28 06:52:06;;;;;;;121.57;54.33;;;;;;;1.62;100.00;98319.44;4951266;29;20212;-85
2021/12/28 06:54:36;;;;;;;109.47;52.43;;;;;;;0.68;100.00;98077.78;4949970;29;20180;-87
2021/12/28 06:57:07;;;;;;;94.37;44.87;;;;;;;3.24;100.00;98498.06;4946816;29;20412;-88
2021/12/28 06:59:43;;;;;;;90.23;44.13;;;;;;;4.78;100.00;98667.81;4959295;28;20423;-88
2021/12/28 07:02:09;;;;;;;89.47;44.07;;;;;;;7.47;100.00;98823.88;4954294;28;20523;-86
2021/12/28 07:04:35;;;;;;;85.80;42.03;;;;;;;8.25;100.00;98724.88;4968196;29;20412;-86
2021/12/28 07:07:02;;;;;;;84.77;40.53;;;;;;;9.57;97.84;98703.19;4953223;29;20436;-86
2021/12/28 07:09:27;;;;;;;86.50;42.47;;;;;;;10.80;88.94;98675.34;4950454;29;20181;-87
2021/12/28 07:11:53;;;;;;;77.60;40.43;;;;;;;12.09;85.47;98844.84;4950166;29;20234;-85
2021/12/28 07:14:20;;;;;;;73.60;37.83;;;;;;;10.57;83.88;98575.97;4951800;29;20177;-88
2021/12/28 07:16:45;;;;;;;68.33;36.63;;;;;;;12.27;81.69;98771.78;4951902;29;20185;-88
2021/12/28 07:19:11;;;;;;;61.63;35.23;;;;;;;13.23;79.33;98847.91;4951880;29;20215;-86
2021/12/28 07:21:41;;;;;;;65.97;37.10;;;;;;;12.66;79.24;98849.81;4967864;29;20195;-87
2021/12/28 07:24:09;;;;;;;54.17;28.27;;;;;;;12.28;79.09;98781.09;4967864;29;20169;-87
2021/12/28 07:26:36;;;;;;;52.13;28.53;;;;;;;10.57;80.66;98515.22;4968466;29;20165;-87
2021/12/28 07:29:02;;;;;;;51.00;29.40;;;;;;;7.93;84.21;98261.53;4951626;29;20177;-87
2021/12/28 07:31:27;;;;;;;85.07;45.90;;;;;;;10.76;82.63;98622.94;4950978;29;20592;-87
2021/12/28 07:33:53;;;;;;;160.20;76.17;;;;;;;8.68;88.21;98549.25;4934954;29;20177;-87
2021/12/28 07:36:19;;;;;;;119.13;58.37;;;;;;;5.46;94.89;98243.13;4955987;29;20567;-85
2021/12/28 07:38:45;;;;;;;86.37;40.53;;;;;;;7.84;100.00;98803.75;4964915;29;20220;-85
2021/12/28 07:41:11;;;;;;;126.93;45.90;;;;;;;6.47;100.00;98622.94;4948239;29;20192;-87
2021/12/28 07:43:36;;;;;;;70.37;36.20;;;;;;;4.85;100.00;98375.69;4963694;29;20183;-87
2021/12/28 07:46:02;;;;;;;68.87;35.33;;;;;;;7.67;100.00;98853.38;4962550;29;20260;-87
2021/12/28 07:48:35;;;;;;;54.70;29.03;;;;;;;6.45;100.00;98719.19;4962672;29;20244;-87
2021/12/28 07:51:01;;;;;;;63.20;33.23;;;;;;;6.90;100.00;98765.78;4964512;29;20196;-85
2021/12/28 07:53:27;;;;;;;80.37;38.60;;;;;;;6.59;100.00;98616.75;4961918;29;20499;-87
2021/12/28 07:55:52;;;;;;;66.43;34.83;;;;;;;7.21;100.00;98713.56;4963343;29;20184;-88
2021/12/28 07:58:18;;;;;;;64.73;38.17;;;;;;;6.62;100.00;98592.59;4946587;29;20191;-87
2021/12/28 08:00:43;;;;;;;65.63;37.17;;;;;;;6.37;100.00;98432.25;4961542;29;20189;-87
2021/12/28 08:03:10;;;;;;;77.93;42.53;;;;;;;9.04;100.00;98804.69;4960620;29;20639;-87
2021/12/28 08:05:37;;;;;;;90.67;49.53;;;;;;;9.41;100.00;98776.69;4959792;29;20185;-87
2021/12/28 08:08:03;;;;;;;139.10;73.07;;;;;;;8.84;99.91;98644.88;4927493;29;20658;-85
2021/12/28 08:10:30;;;;;;;78.77;41.60;;;;;;;9.37;99.83;98717.59;4957922;29;20185;-85
2021/12/28 08:12:56;;;;;;;65.67;38.97;;;;;;;7.81;98.67;98460.09;4958462;29;20196;-86
2021/12/28 08:15:24;;;;;;;71.30;39.73;;;;;;;7.66;98.90;98445.28;4942617;29;20179;-88
2021/12/28 08:17:49;;;;;;;86.53;44.67;;;;;;;9.47;99.03;98727.28;4943603;29;20173;-86
2021/12/28 08:20:16;;;;;;;84.63;46.73;;;;;;;7.73;100.00;98473.28;4940785;29;20630;-85
2021/12/28 08:22:43;;;;;;;125.10;67.23;;;;;;;10.13;98.46;98732.16;4957888;29;20607;-88
2021/12/28 08:25:13;;;;;;;103.83;58.07;;;;;;;8.86;97.58;98491.03;4960266;29;20169;-85
2021/12/28 08:27:43;;;;;;;223.90;109.70;;;;;;;10.77;96.95;98791.69;4958868;29;20759;-87
2021/12/28 08:30:10;;;;;;;122.83;64.00;;;;;;;9.59;98.27;98629.94;4958133;29;20239;-87
2021/12/28 08:32:36;;;;;;;99.27;53.63;;;;;;;10.74;98.71;98809.31;4945176;29;20204;-86
2021/12/28 08:35:03;;;;;;;155.70;78.70;;;;;;;8.51;99.22;98420.78;4962878;29;20235;-87
2021/12/28 08:37:29;;;;;;;58.50;32.17;;;;;;;10.02;98.32;98653.38;4930251;29;20327;-87
2021/12/28 08:39:54;;;;;;;76.37;43.83;;;;;;;11.37;98.13;98818.13;4959829;29;20724;-88
2021/12/28 08:42:21;;;;;;;54.17;32.60;;;;;;;11.31;95.22;98749.53;4944424;29;20192;-88
2021/12/28 08:44:48;;;;;;;59.43;33.90;;;;;;;10.88;93.05;98610.63;4962507;29;20168;-85
2021/12/28 08:47:14;;;;;;;102.37;52.43;;;;;;;10.00;91.28;98407.22;4948316;29;20177;-86
2021/12/28 08:49:40;;;;;;;105.30;56.23;;;;;;;12.49;91.65;98825.66;4965452;29;20177;-85
2021/12/28 08:52:06;;;;;;;85.93;45.77;;;;;;;11.50;90.10;98624.22;4943984;29;20254;-86
2021/12/28 08:54:32;;;;;;;66.30;37.27;;;;;;;12.08;89.57;98680.78;4944059;29;20177;-86
2021/12/28 08:56:57;;;;;;;55.70;32.50;;;;;;;12.25;88.17;98646.53;4960005;29;20176;-86
2021/12/28 08:59:23;;;;;;;58.13;31.43;;;;;;;10.96;87.84;98469.88;4957544;29;20181;-85
2021/12/28 09:01:49;;;;;;;62.67;33.17;;;;;;;13.13;89.13;98802.78;4942751;29;20171;-87
2021/12/28 09:04:16;;;;;;;52.93;29.80;;;;;;;12.68;87.81;98662.78;4947886;29;20244;-85
2021/12/28 09:06:42;;;;;;;49.93;28.57;;;;;;;11.54;85.79;98370.88;4953337;29;20181;-85
2021/12/28 09:09:10;;;;;;;70.33;39.03;;;;;;;14.47;84.03;98782.78;4963315;29;20173;-87
2021/12/28 09:11:36;;;;;;;172.40;73.47;;;;;;;12.28;83.72;98415.66;4948848;29;20296;-87
2021/12/28 09:14:02;;;;;;;86.53;43.00;;;;;;;12.16;84.55;98412.91;4946558;29;20213;-87
2021/12/28 09:16:28;;;;;;;71.20;37.37;;;;;;;12.64;83.71;98481.56;4954721;29;20231;-85
2021/12/28 09:18:54;;;;;;;95.30;51.50;;;;;;;13.54;84.88;98673.19;4961751;29;20173;-88
2021/12/28 09:21:19;;;;;;;102.27;58.00;;;;;;;13.48;85.39;98664.59;4957182;28;20185;-87
2021/12/28 09:23:46;;;;;;;52.37;32.67;;;;;;;12.35;85.42;98531.75;4942332;29;20192;-87
2021/12/28 09:26:11;;;;;;;38.73;23.27;;;;;;;14.39;84.75;98794.53;4962351;29;20184;-88
2021/12/28 09:28:37;;;;;;;38.00;23.93;;;;;;;12.75;82.93;98444.56;4963799;29;20657;-88
2021/12/28 09:31:02;;;;;;;39.80;23.50;;;;;;;13.73;83.82;98627.78;4945834;29;20209;-86
2021/12/28 09:33:28;;;;;;;45.60;27.20;;;;;;;11.24;83.19;98193.69;4965290;29;20173;-85
2021/12/28 09:35:54;;;;;;;42.97;25.90;;;;;;;12.85;86.65;98582.78;4973414;29;20169;-88
2021/12/28 09:38:21;;;;;;;55.30;31.67;;;;;;;13.55;85.72;98601.19;4947836;29;20181;-89
2021/12/28 09:40:50;;;;;;;57.13;33.60;;;;;;;13.88;83.93;98567.84;4966190;28;20237;-88
2021/12/28 09:43:16;;;;;;;48.90;30.70;;;;;;;14.91;82.77;98685.84;4963255;29;20172;-88
2021/12/28 09:45:42;;;;;;;62.20;40.20;;;;;;;14.13;80.53;98474.94;4944064;29;20172;-88
2021/12/28 09:48:09;;;;;;;45.13;26.83;;;;;;;15.84;80.62;98755.19;4965275;29;20188;-89
2021/12/28 09:50:36;;;;;;;39.30;25.67;;;;;;;14.96;80.38;98585.69;4942034;29;20606;-88
2021/12/28 09:53:02;;;;;;;43.37;27.70;;;;;;;15.75;79.91;98683.59;4940170;29;20587;-88
2021/12/28 09:55:29;;;;;;;54.07;32.97;;;;;;;15.03;79.85;98597.66;4940731;29;20175;-88
2021/12/28 09:57:58;;;;;;;38.17;25.87;;;;;;;15.74;80.64;98743.16;4939770;29;20264;-87
2021/12/28 10:00:23;;;;;;;40.77;25.20;;;;;;;13.58;81.99;98442.72;4938852;29;20177;-88
2021/12/28 10:02:52;;;;;;;42.60;28.27;;;;;;;14.37;83.29;98617.06;4941476;29;20217;-87
2021/12/28 10:05:21;;;;;;;38.27;24.03;;;;;;;12.89;84.28;98391.47;4907319;29;20658;-89
2021/12/28 10:07:59;;;;;;;38.40;24.80;;;;;;;14.01;84.55;98576.53;4938444;29;20181;-85
2021/12/28 10:10:27;;;;;;;41.13;25.30;;;;;;;14.50;84.79;98669.91;4939263;29;20365;-86
2021/12/28 10:13:01;;;;;;;42.67;25.13;;;;;;;13.17;84.44;98447.09;4939881;29;20623;-84
2021/12/28 10:15:31;;;;;;;42.37;25.77;;;;;;;11.82;85.30;98243.06;4938652;29;20185;-87
2021/12/28 10:18:00;;;;;;;36.10;22.30;;;;;;;14.04;85.96;98660.56;4916935;29;20239;-85
2021/12/28 10:20:34;;;;;;;37.60;21.27;;;;;;;14.34;87.06;98750.25;4938306;29;20192;-85
2021/12/28 10:23:13;;;;;;;35.53;22.63;;;;;;;12.50;88.33;98513.44;4964456;29;20196;-84
2021/12/28 10:26:01;;;;;;;38.40;22.37;;;;;;;13.29;88.54;98614.22;4894458;29;20190;-85
2021/12/28 10:28:33;;;;;;;32.63;20.27;;;;;;;14.08;87.58;98672.53;4897198;29;20199;-85
2021/12/28 10:31:16;;;;;;;34.63;22.57;;;;;;;14.78;86.65;98746.81;4907180;29;20214;-84
2021/12/28 10:33:43;;;;;;;31.03;18.87;;;;;;;14.53;86.24;98686.09;4896482;29;20204;-85
2021/12/28 10:36:18;;;;;;;95.73;51.50;;;;;;;14.77;85.79;98722.19;4888292;29;20218;-85
2021/12/28 10:38:50;;;;;;;60.00;30.47;;;;;;;12.80;85.56;98374.38;4887216;29;20586;-86
2021/12/28 10:41:21;;;;;;;49.20;26.60;;;;;;;14.95;85.48;98716.50;4890773;29;20210;-86
2021/12/28 10:43:49;;;;;;;46.57;26.73;;;;;;;15.17;84.69;98717.66;4858987;29;20188;-85
2021/12/28 10:46:23;;;;;;;43.43;26.70;;;;;;;14.28;84.40;98597.38;4870031;29;20199;-84
2021/12/28 10:48:54;;;;;;;33.47;19.90;;;;;;;13.52;84.63;98434.97;4862672;29;20246;-85
2021/12/28 10:51:29;;;;;;;35.73;21.00;;;;;;;14.83;84.31;98634.78;4877734;29;20227;-85
2021/12/28 10:57:01;;;;;;;34.13;22.00;;;;;;;14.37;86.13;98658.66;4860036;29;20218;-83
2021/12/28 10:59:33;;;;;;;36.07;22.27;;;;;;;11.51;85.77;98190.03;4877834;29;20283;-84
2021/12/28 11:01:59;;;;;;;35.30;21.90;;;;;;;13.20;85.92;98447.16;4877391;29;20228;-84
2021/12/28 11:04:32;;;;;;;45.87;25.70;;;;;;;11.94;86.04;98245.88;4861859;29;20316;-83
2021/12/28 11:06:57;;;;;;;38.10;24.03;;;;;;;12.67;86.50;98392.78;4877746;29;20176;-86
2021/12/28 11:09:25;;;;;;;38.23;22.43;;;;;;;14.12;85.92;98565.72;4862021;29;20286;-85
2021/12/28 11:11:56;;;;;;;34.03;21.47;;;;;;;13.76;83.60;98465.06;4878568;29;20199;-85
2021/12/28 11:14:26;;;;;;;35.67;21.87;;;;;;;14.96;83.36;98634.09;4879678;29;20343;-85